createdAt,value
2023-05-25T00:01:49.450Z,80.68
2023-05-25T00:04:19.604Z,80.30
2023-05-25T00:06:47.756Z,80.37
2023-05-25T00:09:15.650Z,80.77
2023-05-25T00:11:42.962Z,80.71
2023-05-25T00:14:10.941Z,80.42
2023-05-25T00:16:40.863Z,80.76
2023-05-25T00:19:11.252Z,80.85
2023-05-25T00:21:38.671Z,80.84
2023-05-25T00:24:07.261Z,80.52
2023-05-25T00:26:36.192Z,80.27
2023-05-25T00:29:04.892Z,80.40
2023-05-25T00:31:33.543Z,80.38
2023-05-25T00:34:01.641Z,80.48
2023-05-25T00:36:28.991Z,80.08
2023-05-25T00:38:56.714Z,80.23
2023-05-25T00:41:27.276Z,80.04
2023-05-25T00:43:54.874Z,79.86
2023-05-25T00:46:23.664Z,80.19
2023-05-25T00:48:56.440Z,80.07
2023-05-25T00:51:25.728Z,80.04
2023-05-25T00:53:53.481Z,80.21
2023-05-25T00:56:29.114Z,79.85
2023-05-25T00:59:03.519Z,79.51
2023-05-25T01:01:53.981Z,79.12
2023-05-25T01:04:24.439Z,79.49
2023-05-25T01:06:53.611Z,79.28
2023-05-25T01:09:24.938Z,79.06
2023-05-25T01:11:54.117Z,78.82
2023-05-25T01:14:22.984Z,79.30
2023-05-25T01:16:51.997Z,79.32
2023-05-25T01:19:19.757Z,79.46
2023-05-25T01:22:03.866Z,79.61
2023-05-25T01:24:56.220Z,79.65
2023-05-25T01:27:40.054Z,79.22
2023-05-25T01:30:14.428Z,79.28
2023-05-25T01:32:43.724Z,79.50
2023-05-25T01:35:12.050Z,79.48
2023-05-25T01:37:46.975Z,79.26
2023-05-25T01:40:15.843Z,79.49
2023-05-25T01:42:43.185Z,79.32
2023-05-25T01:45:13.773Z,78.86
2023-05-25T01:47:46.895Z,79.12
2023-05-25T01:50:31.038Z,79.27
2023-05-25T01:53:10.991Z,79.43
2023-05-25T01:55:48.112Z,79.34
2023-05-25T01:58:18.237Z,79.72
2023-05-25T02:00:51.113Z,79.76
2023-05-25T02:03:20.196Z,79.54
2023-05-25T02:05:48.249Z,79.58
2023-05-25T02:08:15.726Z,79.38
2023-05-25T02:10:43.264Z,79.86
2023-05-25T02:13:10.581Z,79.95
2023-05-25T02:15:38.190Z,79.65
2023-05-25T02:18:05.948Z,79.95
2023-05-25T02:20:33.583Z,79.96
2023-05-25T02:23:01.285Z,79.89
2023-05-25T02:25:28.886Z,80.07
2023-05-25T02:27:56.257Z,79.98
2023-05-25T02:30:23.946Z,80.26
2023-05-25T02:32:51.283Z,79.79
2023-05-25T02:35:18.874Z,79.57
2023-05-25T02:37:47.300Z,79.93
2023-05-25T02:40:17.495Z,80.22
2023-05-25T02:42:44.989Z,80.13
2023-05-25T02:45:12.701Z,79.91
2023-05-25T02:47:40.140Z,79.94
2023-05-25T02:50:08.279Z,80.19
2023-05-25T02:52:35.655Z,80.77
2023-05-25T02:55:03.639Z,80.64
2023-05-25T02:57:31.052Z,80.56
2023-05-25T02:59:58.627Z,80.70
2023-05-25T03:02:26.116Z,80.63
2023-05-25T03:04:56.240Z,80.67
2023-05-25T03:07:26.685Z,80.99
2023-05-25T03:09:54.598Z,80.68
2023-05-25T03:12:21.999Z,80.78
2023-05-25T03:14:49.609Z,81.02
2023-05-25T03:17:17.015Z,80.41
2023-05-25T03:19:44.576Z,80.49
2023-05-25T03:22:11.876Z,80.49
2023-05-25T03:24:45.169Z,80.47
2023-05-25T03:27:12.515Z,80.84
2023-05-25T03:29:40.154Z,80.50
2023-05-25T03:32:08.142Z,80.40
2023-05-25T03:34:36.392Z,80.62
2023-05-25T03:37:03.660Z,80.69
2023-05-25T03:39:31.536Z,80.90
2023-05-25T03:41:58.875Z,80.22
2023-05-25T03:44:26.633Z,80.34
2023-05-25T03:46:53.884Z,80.46
2023-05-25T03:49:21.591Z,80.27
2023-05-25T03:51:48.835Z,80.32
2023-05-25T03:54:16.436Z,80.37
2023-05-25T03:59:28.501Z,80.51
2023-05-25T04:01:55.830Z,80.52
2023-05-25T04:04:23.544Z,80.51
2023-05-25T04:06:52.007Z,80.30
2023-05-25T04:09:19.928Z,80.79
2023-05-25T04:11:47.461Z,80.86
2023-05-25T04:14:15.159Z,80.51
2023-05-25T04:16:42.568Z,80.70
2023-05-25T04:19:10.271Z,81.06
2023-05-25T04:21:37.617Z,80.78
2023-05-25T04:24:05.631Z,81.23
2023-05-25T04:26:32.956Z,81.35
2023-05-25T04:29:02.184Z,81.19
2023-05-25T04:31:29.624Z,81.52
2023-05-25T04:33:59.232Z,81.53
2023-05-25T04:36:26.652Z,81.40
2023-05-25T04:38:55.461Z,81.00
2023-05-25T04:41:22.750Z,81.07
2023-05-25T04:44:05.915Z,80.83
2023-05-25T04:46:39.494Z,81.52
2023-05-25T04:49:08.743Z,81.14
2023-05-25T04:51:37.291Z,81.20
2023-05-25T04:54:06.100Z,81.10
2023-05-25T04:56:33.457Z,81.25
2023-05-25T04:59:01.009Z,81.03
2023-05-25T05:01:29.427Z,80.85
2023-05-25T05:03:57.275Z,80.96
2023-05-25T05:06:25.907Z,80.73
2023-05-25T05:08:53.540Z,80.82
2023-05-25T05:11:20.914Z,80.12
2023-05-25T05:13:48.451Z,80.46
2023-05-25T05:16:15.976Z,80.43
2023-05-25T05:18:43.886Z,80.12
2023-05-25T05:21:11.669Z,80.16
2023-05-25T05:23:39.318Z,80.12
2023-05-25T05:26:11.058Z,79.53
2023-05-25T05:28:38.888Z,79.52
2023-05-25T05:31:07.949Z,79.46
2023-05-25T05:33:35.789Z,79.46
2023-05-25T05:36:04.832Z,79.31
2023-05-25T05:38:32.476Z,79.13
2023-05-25T05:41:00.071Z,79.30
2023-05-25T05:43:27.860Z,78.83
2023-05-25T05:45:55.249Z,78.62
2023-05-25T05:48:22.851Z,78.44
2023-05-25T05:50:50.165Z,78.84
2023-05-25T05:53:17.711Z,78.64
2023-05-25T05:55:45.945Z,78.83
2023-05-25T05:58:14.744Z,78.97
2023-05-25T06:00:42.032Z,78.99
2023-05-25T06:03:10.029Z,78.54
2023-05-25T06:05:37.414Z,79.23
2023-05-25T06:08:06.229Z,79.06
2023-05-25T06:10:34.296Z,79.34
2023-05-25T06:13:01.912Z,80.21
2023-05-25T06:15:29.183Z,80.47
2023-05-25T06:17:56.854Z,79.93
2023-05-25T06:20:24.306Z,79.94
2023-05-25T06:22:52.067Z,79.63
2023-05-25T06:25:20.415Z,79.99
2023-05-25T06:27:47.977Z,79.89
2023-05-25T06:30:15.337Z,79.45
2023-05-25T06:32:43.649Z,79.34
2023-05-25T06:35:17.416Z,79.36
2023-05-25T06:37:46.486Z,79.27
2023-05-25T06:40:13.745Z,79.15
2023-05-25T06:42:42.222Z,79.74
2023-05-25T06:45:10.432Z,79.60
2023-05-25T06:47:38.311Z,79.63
2023-05-25T06:50:06.643Z,79.54
2023-05-25T06:52:34.208Z,79.47
2023-05-25T06:55:01.872Z,80.11
2023-05-25T06:57:29.570Z,80.01
2023-05-25T06:59:56.927Z,80.23
2023-05-25T07:02:24.512Z,80.03
2023-05-25T07:04:52.184Z,80.32
2023-05-25T07:07:20.039Z,80.67
2023-05-25T07:09:47.638Z,79.84
2023-05-25T07:12:15.284Z,79.73
2023-05-25T07:14:42.609Z,79.53
2023-05-25T07:17:12.571Z,79.68
2023-05-25T07:19:40.296Z,79.91
2023-05-25T07:22:07.989Z,79.70
2023-05-25T07:24:35.549Z,79.47
2023-05-25T07:27:03.671Z,79.42
2023-05-25T07:29:31.004Z,79.52
2023-05-25T07:31:58.592Z,79.69
2023-05-25T07:34:27.899Z,79.99
2023-05-25T07:36:55.836Z,79.63
2023-05-25T07:39:23.210Z,79.43
2023-05-25T07:41:50.985Z,79.19
2023-05-25T07:44:18.475Z,79.49
2023-05-25T07:46:46.407Z,79.34
2023-05-25T07:49:16.370Z,79.26
2023-05-25T07:51:45.868Z,79.29
2023-05-25T07:54:13.480Z,79.83
2023-05-25T07:56:41.082Z,79.68
2023-05-25T07:59:08.431Z,78.98
2023-05-25T08:01:36.240Z,78.28
2023-05-25T08:04:03.796Z,77.74
2023-05-25T08:06:32.682Z,77.89
2023-05-25T08:08:59.975Z,78.11
2023-05-25T08:11:27.868Z,77.82
2023-05-25T08:13:55.459Z,77.31
2023-05-25T08:16:23.295Z,77.20
2023-05-25T08:18:50.742Z,76.19
2023-05-25T08:21:18.901Z,75.95
2023-05-25T08:23:46.464Z,75.96
2023-05-25T08:26:34.152Z,75.63
2023-05-25T08:29:02.528Z,75.07
2023-05-25T08:31:32.972Z,74.96
2023-05-25T08:34:01.774Z,74.98
2023-05-25T08:36:30.029Z,75.42
2023-05-25T08:38:57.530Z,75.22
2023-05-25T08:41:26.089Z,75.16
2023-05-25T08:43:54.065Z,75.65
2023-05-25T08:46:31.504Z,74.88
2023-05-25T08:49:08.732Z,75.33
2023-05-25T08:51:41.689Z,76.78
2023-05-25T08:54:13.022Z,76.71
2023-05-25T08:57:13.181Z,78.14
2023-05-25T08:59:58.660Z,77.98
2023-05-25T09:02:51.423Z,77.50
2023-05-25T09:05:19.891Z,77.15
2023-05-25T09:07:50.029Z,77.36
2023-05-25T09:10:18.054Z,78.27
2023-05-25T09:12:46.754Z,78.64
2023-05-25T09:15:14.353Z,78.66
2023-05-25T09:17:42.206Z,79.01
2023-05-25T09:20:14.066Z,78.94
2023-05-25T09:22:42.522Z,79.14
2023-05-25T09:25:11.876Z,79.21
2023-05-25T09:27:39.784Z,78.39
2023-05-25T09:30:08.023Z,77.54
2023-05-25T09:32:36.486Z,76.91
2023-05-25T09:35:12.899Z,77.06
2023-05-25T09:37:44.768Z,77.03
2023-05-25T09:40:13.122Z,77.34
2023-05-25T09:42:42.399Z,76.47
2023-05-25T09:45:10.228Z,76.14
2023-05-25T09:47:38.496Z,75.37
2023-05-25T09:50:07.868Z,75.26
2023-05-25T09:52:36.826Z,75.55
2023-05-25T09:55:04.606Z,75.61
2023-05-25T09:57:32.220Z,76.19
2023-05-25T10:00:08.816Z,75.99
2023-05-25T10:02:37.572Z,75.59
2023-05-25T10:05:07.580Z,76.56
2023-05-25T10:07:40.401Z,75.31
2023-05-25T10:10:10.408Z,74.70
2023-05-25T10:12:54.140Z,73.35
2023-05-25T10:15:23.142Z,73.55
2023-05-25T10:17:55.879Z,71.38
2023-05-25T10:20:27.470Z,69.97
2023-05-25T10:23:17.590Z,69.92
2023-05-25T10:25:48.847Z,70.19
2023-05-25T10:28:37.525Z,70.11
2023-05-25T10:31:08.832Z,70.06
2023-05-25T10:33:37.692Z,71.13
2023-05-25T10:36:11.293Z,71.37
2023-05-25T10:38:44.703Z,71.52
2023-05-25T10:41:12.378Z,72.80
2023-05-25T10:43:41.391Z,72.21
2023-05-25T10:46:09.164Z,71.15
2023-05-25T10:48:48.522Z,71.06
2023-05-25T10:51:19.049Z,71.18
2023-05-25T10:53:59.072Z,70.94
2023-05-25T10:56:27.922Z,70.12
2023-05-25T10:58:56.945Z,73.81
2023-05-25T11:01:25.460Z,72.86
2023-05-25T11:04:16.245Z,71.31
2023-05-25T11:06:46.550Z,70.99
2023-05-25T11:09:31.775Z,69.57
2023-05-25T11:11:59.939Z,68.95
2023-05-25T11:14:30.407Z,68.49
2023-05-25T11:17:22.476Z,67.80
2023-05-25T11:19:56.451Z,68.56
2023-05-25T11:22:37.677Z,67.54
2023-05-25T11:25:43.018Z,67.71
2023-05-25T11:28:12.084Z,68.50
2023-05-25T11:30:43.190Z,68.53
2023-05-25T11:33:11.299Z,68.64
2023-05-25T11:35:39.098Z,68.90
2023-05-25T11:38:08.485Z,68.82
2023-05-25T11:40:39.324Z,68.34
2023-05-25T11:43:12.835Z,67.63
2023-05-25T11:45:41.594Z,68.23
2023-05-25T11:48:14.977Z,68.31
2023-05-25T11:50:42.647Z,67.88
2023-05-25T11:53:11.333Z,68.07
2023-05-25T11:55:52.097Z,67.79
2023-05-25T11:58:21.170Z,68.32
2023-05-25T12:00:48.768Z,68.65
2023-05-25T12:03:32.180Z,68.99
2023-05-25T12:05:59.982Z,68.65
2023-05-25T12:08:35.987Z,68.66
2023-05-25T12:11:04.089Z,68.40
2023-05-25T12:13:31.893Z,68.21
2023-05-25T12:16:00.485Z,68.31
2023-05-25T12:18:30.997Z,68.38
2023-05-25T12:20:58.847Z,68.24
2023-05-25T12:23:26.541Z,67.92
2023-05-25T12:26:12.460Z,67.68
2023-05-25T12:28:41.363Z,67.52
2023-05-25T12:31:30.241Z,66.75
2023-05-25T12:34:13.007Z,67.21
2023-05-25T12:36:40.701Z,66.42
2023-05-25T12:39:09.970Z,66.76
2023-05-25T12:41:47.893Z,66.76
2023-05-25T12:44:34.182Z,66.80
2023-05-25T12:47:16.208Z,66.34
2023-05-25T12:49:45.578Z,66.54
2023-05-25T12:52:37.415Z,67.13
2023-05-25T12:55:31.335Z,67.38
2023-05-25T12:58:07.029Z,67.54
2023-05-25T13:00:39.671Z,67.19
2023-05-25T13:03:08.448Z,66.78
2023-05-25T13:05:38.223Z,67.41
2023-05-25T13:08:07.934Z,68.37
2023-05-25T13:10:38.939Z,68.27
2023-05-25T13:13:06.747Z,68.03
2023-05-25T13:15:34.365Z,68.60
2023-05-25T13:18:02.132Z,68.60
2023-05-25T13:20:30.740Z,68.61
2023-05-25T13:22:58.934Z,68.33
2023-05-25T13:25:28.250Z,68.29
2023-05-25T13:27:58.284Z,68.80
2023-05-25T13:30:26.481Z,69.18
2023-05-25T13:32:54.470Z,69.45
2023-05-25T13:35:41.814Z,69.07
2023-05-25T13:38:10.720Z,68.74
2023-05-25T13:40:38.282Z,69.21
2023-05-25T13:43:06.204Z,69.80
2023-05-25T13:45:33.647Z,70.25
2023-05-25T13:48:01.388Z,70.43
2023-05-25T13:50:28.800Z,70.76
2023-05-25T13:52:57.052Z,71.10
2023-05-25T13:55:24.730Z,71.03
2023-05-25T13:57:52.375Z,71.42
2023-05-25T14:00:20.102Z,72.00
2023-05-25T14:02:48.106Z,71.95
2023-05-25T14:05:15.547Z,72.48
2023-05-25T14:07:44.626Z,72.67
2023-05-25T14:10:12.162Z,72.75
2023-05-25T14:12:41.166Z,72.62
2023-05-25T14:15:09.433Z,73.18
2023-05-25T14:17:37.156Z,73.05
2023-05-25T14:20:05.351Z,72.89
2023-05-25T14:22:33.836Z,73.04
2023-05-25T14:25:01.226Z,73.04
2023-05-25T14:27:28.978Z,72.90
2023-05-25T14:29:56.308Z,73.04
2023-05-25T14:32:24.115Z,72.96
2023-05-25T14:34:51.496Z,72.72
2023-05-25T14:37:19.331Z,72.60
2023-05-25T14:39:46.602Z,72.65
2023-05-25T14:42:14.366Z,72.71
2023-05-25T14:44:41.626Z,72.98
2023-05-25T14:47:09.507Z,72.89
2023-05-25T14:49:36.936Z,73.37
2023-05-25T14:52:04.707Z,73.51
2023-05-25T14:54:32.186Z,73.70
2023-05-25T14:56:59.762Z,73.19
2023-05-25T14:59:27.072Z,73.49
2023-05-25T15:01:54.843Z,73.90
2023-05-25T15:04:22.408Z,74.36
2023-05-25T15:06:50.156Z,74.38
2023-05-25T15:09:19.469Z,74.10
2023-05-25T15:11:47.205Z,74.20
2023-05-25T15:14:14.877Z,74.01
2023-05-25T15:16:43.543Z,74.35
2023-05-25T15:19:13.311Z,74.92
2023-05-25T15:21:42.904Z,75.04
2023-05-25T15:24:10.848Z,74.68
2023-05-25T15:26:38.604Z,75.93
2023-05-25T15:29:05.980Z,76.04
2023-05-25T15:31:33.742Z,75.81
2023-05-25T15:34:01.170Z,75.63
2023-05-25T15:36:28.874Z,75.44
2023-05-25T15:38:56.280Z,75.54
2023-05-25T15:41:23.958Z,75.17
2023-05-25T15:43:58.091Z,75.31
2023-05-25T15:46:26.341Z,75.35
2023-05-25T15:48:54.594Z,75.17
2023-05-25T15:51:23.375Z,75.07
2023-05-25T15:53:50.941Z,75.01
2023-05-25T15:56:18.553Z,75.36
2023-05-25T15:58:49.014Z,74.95
2023-05-25T16:01:16.888Z,75.15
2023-05-25T16:03:50.787Z,75.15
2023-05-25T16:06:18.339Z,75.31
2023-05-25T16:08:46.070Z,75.48
2023-05-25T16:11:13.702Z,75.01
2023-05-25T16:13:41.090Z,75.43
2023-05-25T16:16:09.764Z,75.09
2023-05-25T16:18:37.221Z,74.41
2023-05-25T16:21:05.165Z,73.96
2023-05-25T16:23:32.454Z,73.90
2023-05-25T16:26:00.149Z,73.60
2023-05-25T16:28:27.578Z,73.45
2023-05-25T16:30:55.920Z,73.82
2023-05-25T16:33:23.392Z,74.26
2023-05-25T16:35:53.748Z,74.52
2023-05-25T16:38:21.058Z,74.87
2023-05-25T16:40:48.640Z,75.18
2023-05-25T16:43:15.991Z,75.36
2023-05-25T16:45:44.030Z,75.37
2023-05-25T16:48:11.579Z,75.30
2023-05-25T16:50:39.306Z,75.61
2023-05-25T16:53:06.905Z,75.35
2023-05-25T16:55:34.552Z,75.67
2023-05-25T16:58:01.841Z,75.91
2023-05-25T17:00:29.450Z,76.29
2023-05-25T17:02:56.933Z,76.47
2023-05-25T17:05:24.749Z,76.67
2023-05-25T17:07:52.167Z,76.81
2023-05-25T17:10:19.901Z,76.96
2023-05-25T17:12:47.265Z,78.01
2023-05-25T17:15:16.320Z,79.36
2023-05-25T17:17:44.189Z,78.25
2023-05-25T17:20:12.112Z,79.24
2023-05-25T17:22:39.589Z,78.96
2023-05-25T17:25:11.764Z,78.88
2023-05-25T17:27:39.176Z,79.25
2023-05-25T17:30:07.824Z,79.00
2023-05-25T17:32:35.168Z,79.10
2023-05-25T17:35:04.249Z,79.71
2023-05-25T17:37:31.507Z,79.88
2023-05-25T17:39:59.499Z,79.99
2023-05-25T17:42:27.071Z,80.52
2023-05-25T17:44:54.735Z,81.20
2023-05-25T17:47:22.585Z,81.08
2023-05-25T17:49:50.589Z,81.17
2023-05-25T17:52:18.025Z,80.95
2023-05-25T17:54:45.868Z,81.23
2023-05-25T17:57:13.361Z,81.45
2023-05-25T17:59:41.671Z,81.19
2023-05-25T18:02:09.859Z,81.38
2023-05-25T18:04:37.604Z,81.93
2023-05-25T18:07:05.208Z,81.63
2023-05-25T18:09:32.925Z,82.13
2023-05-25T18:12:01.138Z,82.36
2023-05-25T18:14:32.096Z,82.43
2023-05-25T18:16:59.490Z,84.02
2023-05-25T18:19:27.129Z,83.58
2023-05-25T18:21:54.449Z,83.75
2023-05-25T18:24:22.016Z,85.22
2023-05-25T18:26:49.528Z,85.88
2023-05-25T18:29:17.294Z,85.37
2023-05-25T18:31:48.814Z,85.45
2023-05-25T18:34:16.811Z,85.83
2023-05-25T18:36:44.178Z,85.58
2023-05-25T18:39:12.286Z,86.12
2023-05-25T18:41:39.895Z,86.08
2023-05-25T18:44:08.165Z,86.34
2023-05-25T18:46:37.584Z,86.77
2023-05-25T18:49:05.410Z,86.70
2023-05-25T18:51:34.040Z,86.75
2023-05-25T18:54:01.737Z,87.40
2023-05-25T18:56:29.124Z,87.03
2023-05-25T18:58:57.200Z,87.23
2023-05-25T19:01:27.945Z,88.40
2023-05-25T19:03:58.325Z,87.99
2023-05-25T19:06:27.398Z,88.29
2023-05-25T19:08:55.467Z,88.44
2023-05-25T19:11:22.848Z,88.53
2023-05-25T19:13:50.545Z,89.02
2023-05-25T19:16:18.092Z,88.28
2023-05-25T19:18:45.747Z,87.95
2023-05-25T19:21:13.712Z,88.97
2023-05-25T19:23:41.892Z,88.67
2023-05-25T19:26:09.395Z,88.77
2023-05-25T19:28:37.093Z,89.41
2023-05-25T19:31:04.599Z,88.97
2023-05-25T19:33:32.254Z,89.05
2023-05-25T19:35:59.655Z,89.37
2023-05-25T19:38:34.212Z,89.81
2023-05-25T19:41:08.165Z,89.60
2023-05-25T19:43:36.301Z,89.89
2023-05-25T19:46:04.184Z,90.56
2023-05-25T19:48:31.920Z,90.11
2023-05-25T19:51:01.031Z,89.62
2023-05-25T19:53:30.091Z,89.93
2023-05-25T19:55:57.799Z,90.58
2023-05-25T19:58:25.350Z,90.36
2023-05-25T20:00:53.006Z,90.76
2023-05-25T20:03:21.186Z,90.47
2023-05-25T20:05:48.697Z,91.36
2023-05-25T20:08:16.355Z,90.99
2023-05-25T20:10:45.192Z,90.73
2023-05-25T20:13:12.869Z,91.74
2023-05-25T20:15:40.244Z,92.06
2023-05-25T20:18:07.965Z,91.30
2023-05-25T20:20:35.738Z,90.77
2023-05-25T20:23:03.543Z,91.19
2023-05-25T20:25:30.928Z,91.44
2023-05-25T20:27:58.525Z,90.99
2023-05-25T20:30:25.829Z,91.07
2023-05-25T20:32:53.666Z,91.49
2023-05-25T20:35:21.007Z,91.14
2023-05-25T20:37:48.677Z,91.29
2023-05-25T20:40:16.041Z,91.36
2023-05-25T20:42:43.748Z,91.50
2023-05-25T20:45:11.119Z,91.94
2023-05-25T20:47:41.601Z,92.00
2023-05-25T20:50:09.320Z,91.60
2023-05-25T20:52:37.001Z,91.56
2023-05-25T20:55:04.797Z,91.13
2023-05-25T20:57:32.696Z,91.51
2023-05-25T21:00:00.063Z,91.13
2023-05-25T21:02:28.882Z,91.44
2023-05-25T21:04:56.540Z,91.86
2023-05-25T21:07:24.156Z,91.48
2023-05-25T21:09:51.667Z,90.80
2023-05-25T21:12:19.455Z,91.15
2023-05-25T21:14:46.843Z,90.71
2023-05-25T21:17:15.048Z,90.81
2023-05-25T21:19:42.424Z,90.82
2023-05-25T21:22:11.437Z,90.80
2023-05-25T21:24:39.144Z,91.71
2023-05-25T21:27:06.899Z,91.10
2023-05-25T21:29:34.226Z,92.00
2023-05-25T21:32:01.943Z,91.56
2023-05-25T21:34:29.341Z,91.26
2023-05-25T21:36:57.423Z,90.80
2023-05-25T21:39:25.156Z,91.09
2023-05-25T21:41:53.707Z,90.69
2023-05-25T21:44:22.945Z,90.64
2023-05-25T21:46:50.672Z,90.47
2023-05-25T21:49:18.128Z,90.14
2023-05-25T21:51:45.791Z,90.42
2023-05-25T21:54:13.189Z,91.10
2023-05-25T21:56:40.915Z,92.09
2023-05-25T21:59:08.153Z,92.17
2023-05-25T22:01:35.913Z,91.14
2023-05-25T22:04:03.392Z,91.33
2023-05-25T22:06:31.032Z,91.54
2023-05-25T22:08:59.104Z,91.67
2023-05-25T22:11:26.828Z,91.32
2023-05-25T22:13:54.173Z,91.15
2023-05-25T22:16:22.073Z,90.66
2023-05-25T22:18:49.612Z,90.51
2023-05-25T22:21:17.944Z,90.64
2023-05-25T22:23:45.271Z,90.46
2023-05-25T22:26:12.823Z,90.34
2023-05-25T22:28:40.219Z,90.59
2023-05-25T22:31:07.957Z,90.84
2023-05-25T22:33:35.420Z,91.06
2023-05-25T22:36:03.098Z,90.94
2023-05-25T22:38:31.727Z,92.34
2023-05-25T22:40:59.317Z,92.15
2023-05-25T22:43:27.161Z,93.26
2023-05-25T22:45:54.812Z,92.07
2023-05-25T22:48:22.111Z,91.54
2023-05-25T22:50:50.020Z,91.55
2023-05-25T22:53:17.467Z,91.48
2023-05-25T22:55:47.272Z,91.55
2023-05-25T22:58:14.933Z,92.95
2023-05-25T23:00:42.622Z,92.60
2023-05-25T23:03:10.152Z,92.48
2023-05-25T23:05:37.975Z,92.58
2023-05-25T23:08:05.383Z,92.31
2023-05-25T23:10:32.954Z,92.91
2023-05-25T23:13:00.605Z,91.77
2023-05-25T23:15:28.629Z,92.43
2023-05-25T23:17:56.330Z,92.09
2023-05-25T23:20:24.071Z,91.70
2023-05-25T23:22:51.474Z,91.75
2023-05-25T23:25:19.253Z,91.66
2023-05-25T23:27:46.935Z,92.07
2023-05-25T23:30:15.437Z,92.14
2023-05-25T23:32:44.041Z,92.17
2023-05-25T23:35:11.760Z,92.13
2023-05-25T23:37:39.170Z,92.58
2023-05-25T23:40:08.169Z,91.68
2023-05-25T23:42:40.197Z,92.61
2023-05-25T23:45:08.783Z,92.03
2023-05-25T23:47:36.305Z,92.25
2023-05-25T23:50:04.377Z,92.29
2023-05-25T23:52:31.614Z,92.25
2023-05-25T23:54:59.347Z,92.36
2023-05-25T23:57:26.636Z,92.15
2023-05-25T23:59:54.265Z,91.90
